sensor_id;sensor_type;location;lat;lon;timestamp;pressure;altitude;pressure_sealevel;temperature;humidity
58757;BME280;44527;47.460;19.016;2024-03-17T00:00:32;100514.87;;;11.83;100.00
58757;BME280;44527;47.460;19.016;2024-03-17T00:03:34;100519.97;;;11.86;100.00
58757;BME280;44527;47.460;19.016;2024-03-17T00:06:35;100515.53;;;11.73;100.00
58757;BME280;44527;47.460;19.016;2024-03-17T00:09:38;100517.09;;;11.76;100.00
58757;BME280;44527;47.460;19.016;2024-03-17T00:12:40;100522.44;;;11.74;100.00
58757;BME280;44527;47.460;19.016;2024-03-17T00:15:42;100518.56;;;11.67;100.00
58757;BME280;44527;47.460;19.016;2024-03-17T00:18:44;100517.59;;;11.68;100.00
58757;BME280;44527;47.460;19.016;2024-03-17T00:21:46;100519.31;;;11.69;100.00
58757;BME280;44527;47.460;19.016;2024-03-17T00:24:47;100510.25;;;11.61;100.00
58757;BME280;44527;47.460;19.016;2024-03-17T00:27:49;100511.19;;;11.60;100.00
58757;BME280;44527;47.460;19.016;2024-03-17T00:30:52;100514.56;;;11.49;100.00
58757;BME280;44527;47.460;19.016;2024-03-17T00:33:54;100514.00;;;11.44;100.00
58757;BME280;44527;47.460;19.016;2024-03-17T00:36:56;100512.34;;;11.43;100.00
58757;BME280;44527;47.460;19.016;2024-03-17T00:39:57;100515.37;;;11.37;100.00
58757;BME280;44527;47.460;19.016;2024-03-17T00:42:59;100518.41;;;11.31;100.00
58757;BME280;44527;47.460;19.016;2024-03-17T00:46:01;100527.25;;;11.30;100.00
58757;BME280;44527;47.460;19.016;2024-03-17T00:49:02;100529.25;;;11.39;100.00
58757;BME280;44527;47.460;19.016;2024-03-17T00:52:04;100528.78;;;11.32;100.00
58757;BME280;44527;47.460;19.016;2024-03-17T00:55:06;100526.38;;;11.29;100.00
58757;BME280;44527;47.460;19.016;2024-03-17T00:58:08;100524.91;;;11.25;100.00
58757;BME280;44527;47.460;19.016;2024-03-17T01:01:10;100523.41;;;11.08;100.00
58757;BME280;44527;47.460;19.016;2024-03-17T01:04:11;100522.66;;;11.06;100.00
58757;BME280;44527;47.460;19.016;2024-03-17T01:07:13;100530.91;;;11.00;100.00
58757;BME280;44527;47.460;19.016;2024-03-17T01:10:15;100531.75;;;11.00;100.00
58757;BME280;44527;47.460;19.016;2024-03-17T01:13:17;100525.94;;;10.95;100.00
58757;BME280;44527;47.460;19.016;2024-03-17T01:16:19;100523.00;;;10.87;100.00
58757;BME280;44527;47.460;19.016;2024-03-17T01:19:21;100522.63;;;10.79;100.00
58757;BME280;44527;47.460;19.016;2024-03-17T01:22:23;100524.63;;;10.75;100.00
58757;BME280;44527;47.460;19.016;2024-03-17T01:25:24;100524.06;;;10.70;100.00
58757;BME280;44527;47.460;19.016;2024-03-17T01:28:31;100526.16;;;10.65;100.00
58757;BME280;44527;47.460;19.016;2024-03-17T01:31:33;100533.72;;;10.70;100.00
58757;BME280;44527;47.460;19.016;2024-03-17T01:34:35;100528.47;;;10.70;100.00
58757;BME280;44527;47.460;19.016;2024-03-17T01:37:37;100517.34;;;10.66;100.00
58757;BME280;44527;47.460;19.016;2024-03-17T01:40:39;100516.50;;;10.66;100.00
58757;BME280;44527;47.460;19.016;2024-03-17T01:43:41;100519.84;;;10.68;100.00
58757;BME280;44527;47.460;19.016;2024-03-17T01:46:42;100525.28;;;10.65;100.00
58757;BME280;44527;47.460;19.016;2024-03-17T01:49:46;100529.06;;;10.61;100.00
58757;BME280;44527;47.460;19.016;2024-03-17T01:52:49;100525.47;;;10.62;100.00
58757;BME280;44527;47.460;19.016;2024-03-17T01:55:52;100533.75;;;10.55;100.00
58757;BME280;44527;47.460;19.016;2024-03-17T01:58:56;100529.75;;;10.50;100.00
58757;BME280;44527;47.460;19.016;2024-03-17T02:01:59;100532.37;;;10.50;100.00
58757;BME280;44527;47.460;19.016;2024-03-17T02:05:01;100527.47;;;10.44;100.00
58757;BME280;44527;47.460;19.016;2024-03-17T02:08:05;100540.06;;;10.39;100.00
58757;BME280;44527;47.460;19.016;2024-03-17T02:14:24;100546.34;;;10.36;100.00
58757;BME280;44527;47.460;19.016;2024-03-17T02:17:26;100560.59;;;10.32;100.00
58757;BME280;44527;47.460;19.016;2024-03-17T02:20:31;100566.31;;;10.39;100.00
58757;BME280;44527;47.460;19.016;2024-03-17T02:23:56;100557.78;;;10.35;100.00
58757;BME280;44527;47.460;19.016;2024-03-17T02:26:57;100563.94;;;10.34;100.00
58757;BME280;44527;47.460;19.016;2024-03-17T02:29:59;100568.94;;;10.39;100.00
58757;BME280;44527;47.460;19.016;2024-03-17T02:33:01;100569.31;;;10.47;100.00
58757;BME280;44527;47.460;19.016;2024-03-17T02:36:04;100569.47;;;10.44;100.00
58757;BME280;44527;47.460;19.016;2024-03-17T02:39:08;100577.44;;;10.42;100.00
58757;BME280;44527;47.460;19.016;2024-03-17T02:42:28;100582.97;;;10.38;100.00
58757;BME280;44527;47.460;19.016;2024-03-17T02:45:30;100599.06;;;10.31;100.00
58757;BME280;44527;47.460;19.016;2024-03-17T02:48:32;100592.06;;;10.32;100.00
58757;BME280;44527;47.460;19.016;2024-03-17T02:51:34;100583.63;;;10.27;100.00
58757;BME280;44527;47.460;19.016;2024-03-17T02:54:37;100587.16;;;10.26;100.00
58757;BME280;44527;47.460;19.016;2024-03-17T02:57:38;100589.22;;;10.21;100.00
58757;BME280;44527;47.460;19.016;2024-03-17T03:00:42;100582.66;;;10.13;100.00
58757;BME280;44527;47.460;19.016;2024-03-17T03:03:43;100565.31;;;10.25;100.00
58757;BME280;44527;47.460;19.016;2024-03-17T03:06:47;100567.88;;;10.27;100.00
58757;BME280;44527;47.460;19.016;2024-03-17T03:09:51;100565.31;;;10.25;100.00
58757;BME280;44527;47.460;19.016;2024-03-17T03:12:53;100577.41;;;10.13;100.00
58757;BME280;44527;47.460;19.016;2024-03-17T03:15:54;100584.78;;;10.07;100.00
58757;BME280;44527;47.460;19.016;2024-03-17T03:18:57;100579.84;;;10.02;100.00
58757;BME280;44527;47.460;19.016;2024-03-17T03:21:58;100581.62;;;10.16;100.00
58757;BME280;44527;47.460;19.016;2024-03-17T03:25:01;100582.16;;;10.07;100.00
58757;BME280;44527;47.460;19.016;2024-03-17T03:28:02;100588.34;;;10.06;100.00
58757;BME280;44527;47.460;19.016;2024-03-17T03:31:04;100595.09;;;10.10;100.00
58757;BME280;44527;47.460;19.016;2024-03-17T03:34:07;100592.94;;;10.02;100.00
58757;BME280;44527;47.460;19.016;2024-03-17T03:37:12;100597.59;;;9.97;100.00
58757;BME280;44527;47.460;19.016;2024-03-17T03:40:14;100577.09;;;9.89;100.00
58757;BME280;44527;47.460;19.016;2024-03-17T03:43:19;100584.12;;;9.89;100.00
58757;BME280;44527;47.460;19.016;2024-03-17T03:46:20;100589.81;;;9.81;100.00
58757;BME280;44527;47.460;19.016;2024-03-17T03:49:22;100605.12;;;9.73;100.00
58757;BME280;44527;47.460;19.016;2024-03-17T03:52:24;100606.00;;;9.74;100.00
58757;BME280;44527;47.460;19.016;2024-03-17T03:55:26;100608.22;;;9.65;100.00
58757;BME280;44527;47.460;19.016;2024-03-17T03:58:28;100629.00;;;9.69;100.00
58757;BME280;44527;47.460;19.016;2024-03-17T04:01:33;100624.31;;;9.59;100.00
58757;BME280;44527;47.460;19.016;2024-03-17T04:04:35;100631.50;;;9.56;100.00
58757;BME280;44527;47.460;19.016;2024-03-17T04:07:37;100625.75;;;9.49;100.00
58757;BME280;44527;47.460;19.016;2024-03-17T04:10:39;100624.50;;;9.40;100.00
58757;BME280;44527;47.460;19.016;2024-03-17T04:13:40;100638.13;;;9.31;100.00
58757;BME280;44527;47.460;19.016;2024-03-17T04:16:42;100648.50;;;9.33;100.00
58757;BME280;44527;47.460;19.016;2024-03-17T04:19:45;100639.38;;;9.24;100.00
58757;BME280;44527;47.460;19.016;2024-03-17T04:22:47;100656.12;;;9.22;100.00
58757;BME280;44527;47.460;19.016;2024-03-17T04:25:51;100673.03;;;9.16;100.00
58757;BME280;44527;47.460;19.016;2024-03-17T04:28:54;100661.59;;;9.17;100.00
58757;BME280;44527;47.460;19.016;2024-03-17T04:31:55;100657.03;;;9.20;99.69
58757;BME280;44527;47.460;19.016;2024-03-17T04:34:57;100667.84;;;9.14;100.00
58757;BME280;44527;47.460;19.016;2024-03-17T04:37:59;100654.94;;;9.11;100.00
58757;BME280;44527;47.460;19.016;2024-03-17T04:41:00;100646.75;;;9.02;100.00
58757;BME280;44527;47.460;19.016;2024-03-17T04:44:11;100647.75;;;8.99;100.00
58757;BME280;44527;47.460;19.016;2024-03-17T04:47:13;100642.94;;;8.91;100.00
58757;BME280;44527;47.460;19.016;2024-03-17T04:50:15;100647.34;;;8.91;100.00
58757;BME280;44527;47.460;19.016;2024-03-17T04:53:18;100644.88;;;8.88;100.00
58757;BME280;44527;47.460;19.016;2024-03-17T04:56:20;100644.34;;;8.81;100.00
58757;BME280;44527;47.460;19.016;2024-03-17T04:59:21;100644.44;;;8.80;100.00
58757;BME280;44527;47.460;19.016;2024-03-17T05:02:23;100642.06;;;8.75;100.00
58757;BME280;44527;47.460;19.016;2024-03-17T05:05:25;100651.84;;;8.71;100.00
58757;BME280;44527;47.460;19.016;2024-03-17T05:08:26;100662.41;;;8.70;100.00
58757;BME280;44527;47.460;19.016;2024-03-17T05:11:28;100659.50;;;8.59;100.00
58757;BME280;44527;47.460;19.016;2024-03-17T05:14:29;100659.97;;;8.67;100.00
58757;BME280;44527;47.460;19.016;2024-03-17T05:17:31;100662.66;;;8.81;100.00
58757;BME280;44527;47.460;19.016;2024-03-17T05:20:32;100660.59;;;8.88;100.00
58757;BME280;44527;47.460;19.016;2024-03-17T05:23:35;100666.91;;;9.00;100.00
58757;BME280;44527;47.460;19.016;2024-03-17T05:26:38;100683.50;;;9.16;98.72
58757;BME280;44527;47.460;19.016;2024-03-17T05:29:39;100678.44;;;9.13;96.19
58757;BME280;44527;47.460;19.016;2024-03-17T05:32:41;100703.78;;;9.12;93.98
58757;BME280;44527;47.460;19.016;2024-03-17T05:35:59;100713.41;;;9.28;93.72
58757;BME280;44527;47.460;19.016;2024-03-17T05:39:00;100708.84;;;9.47;93.28
58757;BME280;44527;47.460;19.016;2024-03-17T05:42:02;100715.47;;;9.84;91.33
58757;BME280;44527;47.460;19.016;2024-03-17T05:45:05;100712.69;;;10.76;80.14
58757;BME280;44527;47.460;19.016;2024-03-17T05:48:07;100716.78;;;11.38;76.32
58757;BME280;44527;47.460;19.016;2024-03-17T05:51:10;100713.72;;;12.12;71.64
58757;BME280;44527;47.460;19.016;2024-03-17T05:54:12;100718.81;;;12.41;69.18
58757;BME280;44527;47.460;19.016;2024-03-17T05:57:13;100707.13;;;12.58;67.21
58757;BME280;44527;47.460;19.016;2024-03-17T06:00:17;100721.94;;;12.21;68.60
58757;BME280;44527;47.460;19.016;2024-03-17T06:03:20;100719.06;;;12.11;68.08
58757;BME280;44527;47.460;19.016;2024-03-17T06:06:22;100723.81;;;11.79;70.23
58757;BME280;44527;47.460;19.016;2024-03-17T06:09:24;100708.72;;;11.95;68.48
58757;BME280;44527;47.460;19.016;2024-03-17T06:12:25;100702.59;;;12.22;67.83
58757;BME280;44527;47.460;19.016;2024-03-17T06:15:28;100710.34;;;13.13;64.33
58757;BME280;44527;47.460;19.016;2024-03-17T06:18:30;100706.91;;;13.97;62.10
58757;BME280;44527;47.460;19.016;2024-03-17T06:21:32;100712.56;;;14.50;58.80
58757;BME280;44527;47.460;19.016;2024-03-17T06:24:33;100699.03;;;14.55;59.68
58757;BME280;44527;47.460;19.016;2024-03-17T06:27:35;100703.28;;;14.91;57.04
58757;BME280;44527;47.460;19.016;2024-03-17T06:30:36;100701.94;;;14.85;54.93
58757;BME280;44527;47.460;19.016;2024-03-17T06:33:39;100693.41;;;15.04;55.08
58757;BME280;44527;47.460;19.016;2024-03-17T06:36:40;100707.22;;;15.08;54.01
58757;BME280;44527;47.460;19.016;2024-03-17T06:39:45;100707.22;;;14.85;54.88
58757;BME280;44527;47.460;19.016;2024-03-17T06:42:46;100702.63;;;14.87;53.86
58757;BME280;44527;47.460;19.016;2024-03-17T06:45:59;100702.13;;;15.38;52.73
58757;BME280;44527;47.460;19.016;2024-03-17T06:49:00;100715.53;;;16.64;48.25
58757;BME280;44527;47.460;19.016;2024-03-17T06:52:02;100723.75;;;17.73;45.25
58757;BME280;44527;47.460;19.016;2024-03-17T06:55:04;100727.41;;;17.91;43.84
58757;BME280;44527;47.460;19.016;2024-03-17T06:58:08;100722.81;;;18.69;42.66
58757;BME280;44527;47.460;19.016;2024-03-17T07:01:09;100718.75;;;19.85;38.60
58757;BME280;44527;47.460;19.016;2024-03-17T07:04:11;100710.84;;;19.93;37.25
58757;BME280;44527;47.460;19.016;2024-03-17T07:07:13;100721.03;;;19.98;37.08
58757;BME280;44527;47.460;19.016;2024-03-17T07:10:15;100714.47;;;20.10;35.62
58757;BME280;44527;47.460;19.016;2024-03-17T07:13:17;100725.72;;;19.23;36.97
58757;BME280;44527;47.460;19.016;2024-03-17T07:16:19;100729.84;;;18.70;37.94
58757;BME280;44527;47.460;19.016;2024-03-17T07:19:23;100739.16;;;18.08;39.45
58757;BME280;44527;47.460;19.016;2024-03-17T07:22:24;100728.66;;;18.26;40.44
58757;BME280;44527;47.460;19.016;2024-03-17T07:25:27;100721.50;;;18.46;38.21
58757;BME280;44527;47.460;19.016;2024-03-17T07:28:29;100732.50;;;17.54;39.69
58757;BME280;44527;47.460;19.016;2024-03-17T07:31:30;100715.94;;;17.11;40.68
58757;BME280;44527;47.460;19.016;2024-03-17T07:34:33;100715.37;;;16.14;43.51
58757;BME280;44527;47.460;19.016;2024-03-17T07:37:34;100727.00;;;15.47;44.84
58757;BME280;44527;47.460;19.016;2024-03-17T07:40:36;100730.75;;;15.00;46.75
58757;BME280;44527;47.460;19.016;2024-03-17T07:43:38;100735.75;;;13.87;48.97
58757;BME280;44527;47.460;19.016;2024-03-17T07:46:40;100726.16;;;13.00;51.54
58757;BME280;44527;47.460;19.016;2024-03-17T07:49:45;100721.03;;;12.98;51.50
58757;BME280;44527;47.460;19.016;2024-03-17T07:52:47;100722.31;;;12.80;51.67
58757;BME280;44527;47.460;19.016;2024-03-17T07:55:58;100739.75;;;12.42;52.80
58757;BME280;44527;47.460;19.016;2024-03-17T07:59:00;100729.53;;;11.71;53.67
58757;BME280;44527;47.460;19.016;2024-03-17T08:02:02;100721.37;;;11.76;53.77
58757;BME280;44527;47.460;19.016;2024-03-17T08:05:03;100743.53;;;11.71;53.86
58757;BME280;44527;47.460;19.016;2024-03-17T08:08:06;100733.84;;;11.72;53.82
58757;BME280;44527;47.460;19.016;2024-03-17T08:11:09;100734.97;;;11.82;54.47
58757;BME280;44527;47.460;19.016;2024-03-17T08:14:10;100742.94;;;11.81;54.69
58757;BME280;44527;47.460;19.016;2024-03-17T08:17:12;100743.59;;;12.11;54.67
58757;BME280;44527;47.460;19.016;2024-03-17T08:20:13;100746.13;;;12.00;52.54
58757;BME280;44527;47.460;19.016;2024-03-17T08:23:15;100749.22;;;11.78;52.09
58757;BME280;44527;47.460;19.016;2024-03-17T08:26:16;100744.38;;;11.72;52.12
58757;BME280;44527;47.460;19.016;2024-03-17T08:29:18;100754.81;;;11.73;52.10
58757;BME280;44527;47.460;19.016;2024-03-17T08:32:20;100754.81;;;11.88;51.30
58757;BME280;44527;47.460;19.016;2024-03-17T08:35:22;100765.34;;;11.59;51.18
58757;BME280;44527;47.460;19.016;2024-03-17T08:38:24;100763.78;;;11.98;50.84
58757;BME280;44527;47.460;19.016;2024-03-17T08:41:26;100764.44;;;12.14;50.81
58757;BME280;44527;47.460;19.016;2024-03-17T08:44:27;100764.16;;;11.92;49.44
58757;BME280;44527;47.460;19.016;2024-03-17T08:47:29;100766.19;;;12.01;49.75
58757;BME280;44527;47.460;19.016;2024-03-17T08:50:30;100765.56;;;11.98;49.50
58757;BME280;44527;47.460;19.016;2024-03-17T08:53:35;100768.44;;;12.07;49.51
58757;BME280;44527;47.460;19.016;2024-03-17T08:56:36;100769.88;;;11.99;47.40
58757;BME280;44527;47.460;19.016;2024-03-17T08:59:38;100768.19;;;11.98;47.79
58757;BME280;44527;47.460;19.016;2024-03-17T09:02:39;100769.25;;;11.81;46.88
58757;BME280;44527;47.460;19.016;2024-03-17T09:05:43;100760.50;;;11.80;48.17
58757;BME280;44527;47.460;19.016;2024-03-17T09:08:45;100768.69;;;11.90;47.49
58757;BME280;44527;47.460;19.016;2024-03-17T09:11:47;100768.87;;;11.87;47.78
58757;BME280;44527;47.460;19.016;2024-03-17T09:14:48;100757.84;;;12.22;47.94
58757;BME280;44527;47.460;19.016;2024-03-17T09:17:50;100761.34;;;12.48;47.01
58757;BME280;44527;47.460;19.016;2024-03-17T09:21:01;100758.72;;;12.60;45.36
58757;BME280;44527;47.460;19.016;2024-03-17T09:24:05;100768.31;;;12.49;44.53
58757;BME280;44527;47.460;19.016;2024-03-17T09:27:08;100767.44;;;11.95;45.62
58757;BME280;44527;47.460;19.016;2024-03-17T09:30:11;100777.97;;;11.95;44.50
58757;BME280;44527;47.460;19.016;2024-03-17T09:33:12;100780.03;;;11.90;44.46
58757;BME280;44527;47.460;19.016;2024-03-17T09:36:14;100779.44;;;12.00;45.64
58757;BME280;44527;47.460;19.016;2024-03-17T09:39:15;100787.53;;;12.24;45.85
58757;BME280;44527;47.460;19.016;2024-03-17T09:42:18;100794.09;;;12.31;46.98
58757;BME280;44527;47.460;19.016;2024-03-17T09:45:21;100774.50;;;12.35;46.16
58757;BME280;44527;47.460;19.016;2024-03-17T09:48:25;100784.50;;;12.42;45.75
58757;BME280;44527;47.460;19.016;2024-03-17T09:51:26;100778.81;;;12.36;43.19
58757;BME280;44527;47.460;19.016;2024-03-17T09:54:28;100778.59;;;12.26;45.01
58757;BME280;44527;47.460;19.016;2024-03-17T09:57:32;100774.31;;;12.51;45.57
58757;BME280;44527;47.460;19.016;2024-03-17T10:00:34;100788.38;;;12.77;45.66
58757;BME280;44527;47.460;19.016;2024-03-17T10:06:46;100777.28;;;12.84;43.88
58757;BME280;44527;47.460;19.016;2024-03-17T10:09:48;100762.94;;;12.88;41.48
58757;BME280;44527;47.460;19.016;2024-03-17T10:12:50;100778.25;;;12.83;41.00
58757;BME280;44527;47.460;19.016;2024-03-17T10:15:52;100756.97;;;12.86;41.57
58757;BME280;44527;47.460;19.016;2024-03-17T10:19:13;100767.38;;;12.88;41.44
58757;BME280;44527;47.460;19.016;2024-03-17T10:22:15;100752.75;;;12.97;43.11
58757;BME280;44527;47.460;19.016;2024-03-17T10:25:16;100756.94;;;12.99;40.88
58757;BME280;44527;47.460;19.016;2024-03-17T10:28:19;100742.22;;;12.84;40.88
58757;BME280;44527;47.460;19.016;2024-03-17T10:31:21;100749.28;;;12.71;41.39
58757;BME280;44527;47.460;19.016;2024-03-17T10:34:24;100727.44;;;12.81;43.17
58757;BME280;44527;47.460;19.016;2024-03-17T10:37:26;100736.94;;;12.71;43.77
58757;BME280;44527;47.460;19.016;2024-03-17T10:40:30;100733.03;;;12.64;46.17
58757;BME280;44527;47.460;19.016;2024-03-17T10:43:31;100731.22;;;12.39;41.58
58757;BME280;44527;47.460;19.016;2024-03-17T10:46:34;100732.06;;;12.27;40.55
58757;BME280;44527;47.460;19.016;2024-03-17T10:49:37;100709.31;;;12.26;43.22
58757;BME280;44527;47.460;19.016;2024-03-17T10:52:41;100723.75;;;12.46;44.24
58757;BME280;44527;47.460;19.016;2024-03-17T10:55:47;100725.66;;;12.69;43.56
58757;BME280;44527;47.460;19.016;2024-03-17T10:58:55;100731.56;;;12.98;42.41
58757;BME280;44527;47.460;19.016;2024-03-17T11:01:59;100722.28;;;12.67;41.10
58757;BME280;44527;47.460;19.016;2024-03-17T11:05:24;100723.16;;;12.80;41.29
58757;BME280;44527;47.460;19.016;2024-03-17T11:08:26;100723.16;;;12.68;40.93
58757;BME280;44527;47.460;19.016;2024-03-17T11:11:37;100721.25;;;12.70;41.49
58757;BME280;44527;47.460;19.016;2024-03-17T11:14:43;100716.06;;;12.94;42.36
58757;BME280;44527;47.460;19.016;2024-03-17T11:17:48;100712.38;;;12.96;42.43
58757;BME280;44527;47.460;19.016;2024-03-17T11:20:59;100712.81;;;12.52;42.51
58757;BME280;44527;47.460;19.016;2024-03-17T11:24:03;100701.00;;;12.70;44.17
58757;BME280;44527;47.460;19.016;2024-03-17T11:27:40;100701.63;;;12.61;42.58
58757;BME280;44527;47.460;19.016;2024-03-17T11:33:47;100705.22;;;12.73;42.70
58757;BME280;44527;47.460;19.016;2024-03-17T11:36:50;100708.28;;;12.92;43.08
58757;BME280;44527;47.460;19.016;2024-03-17T11:39:56;100711.09;;;13.02;41.88
58757;BME280;44527;47.460;19.016;2024-03-17T11:43:02;100715.41;;;13.03;40.45
58757;BME280;44527;47.460;19.016;2024-03-17T11:46:04;100705.28;;;13.09;39.96
58757;BME280;44527;47.460;19.016;2024-03-17T11:49:06;100702.28;;;12.77;41.42
58757;BME280;44527;47.460;19.016;2024-03-17T11:52:15;100705.75;;;12.78;41.13
58757;BME280;44527;47.460;19.016;2024-03-17T11:55:18;100715.66;;;12.87;43.21
58757;BME280;44527;47.460;19.016;2024-03-17T11:58:19;100713.75;;;13.02;43.78
58757;BME280;44527;47.460;19.016;2024-03-17T12:01:28;100704.34;;;13.10;42.14
58757;BME280;44527;47.460;19.016;2024-03-17T12:04:30;100709.69;;;13.22;42.34
58757;BME280;44527;47.460;19.016;2024-03-17T12:07:32;100710.25;;;13.14;40.28
58757;BME280;44527;47.460;19.016;2024-03-17T12:10:35;100692.44;;;13.05;40.17
58757;BME280;44527;47.460;19.016;2024-03-17T12:13:36;100687.72;;;12.84;40.16
58757;BME280;44527;47.460;19.016;2024-03-17T12:16:38;100685.88;;;12.74;39.84
58757;BME280;44527;47.460;19.016;2024-03-17T12:19:44;100686.06;;;12.71;39.94
58757;BME280;44527;47.460;19.016;2024-03-17T12:22:47;100669.84;;;12.64;38.88
58757;BME280;44527;47.460;19.016;2024-03-17T12:25:49;100677.84;;;12.75;39.85
58757;BME280;44527;47.460;19.016;2024-03-17T12:28:50;100680.06;;;12.69;40.51
58757;BME280;44527;47.460;19.016;2024-03-17T12:31:52;100674.25;;;12.76;39.63
58757;BME280;44527;47.460;19.016;2024-03-17T12:34:55;100670.69;;;12.77;36.22
58757;BME280;44527;47.460;19.016;2024-03-17T12:37:58;100664.03;;;12.84;36.27
58757;BME280;44527;47.460;19.016;2024-03-17T12:41:00;100670.44;;;12.93;36.18
58757;BME280;44527;47.460;19.016;2024-03-17T12:44:01;100695.78;;;13.07;37.19
58757;BME280;44527;47.460;19.016;2024-03-17T12:47:04;100677.63;;;12.78;38.29
58757;BME280;44527;47.460;19.016;2024-03-17T12:50:11;100660.87;;;12.92;37.41
58757;BME280;44527;47.460;19.016;2024-03-17T12:53:16;100671.16;;;13.08;37.70
58757;BME280;44527;47.460;19.016;2024-03-17T12:56:23;100682.31;;;13.11;36.72
58757;BME280;44527;47.460;19.016;2024-03-17T12:59:43;100661.16;;;12.87;38.54
58757;BME280;44527;47.460;19.016;2024-03-17T13:03:04;100677.56;;;13.04;38.75
58757;BME280;44527;47.460;19.016;2024-03-17T13:06:09;100671.72;;;13.24;37.32
58757;BME280;44527;47.460;19.016;2024-03-17T13:09:11;100664.09;;;13.08;35.67
58757;BME280;44527;47.460;19.016;2024-03-17T13:12:16;100672.13;;;12.94;35.65
58757;BME280;44527;47.460;19.016;2024-03-17T13:15:17;100677.47;;;13.05;36.46
58757;BME280;44527;47.460;19.016;2024-03-17T13:18:20;100667.50;;;12.85;36.09
58757;BME280;44527;47.460;19.016;2024-03-17T13:21:21;100678.25;;;12.82;35.64
58757;BME280;44527;47.460;19.016;2024-03-17T13:24:23;100664.69;;;12.62;36.73
58757;BME280;44527;47.460;19.016;2024-03-17T13:27:24;100654.53;;;12.82;38.08
58757;BME280;44527;47.460;19.016;2024-03-17T13:30:26;100654.41;;;12.96;37.06
58757;BME280;44527;47.460;19.016;2024-03-17T13:33:29;100661.44;;;13.08;36.53
58757;BME280;44527;47.460;19.016;2024-03-17T13:36:31;100649.66;;;13.01;36.36
58757;BME280;44527;47.460;19.016;2024-03-17T13:39:33;100636.06;;;12.95;37.27
58757;BME280;44527;47.460;19.016;2024-03-17T13:42:35;100630.78;;;12.95;38.16
58757;BME280;44527;47.460;19.016;2024-03-17T13:45:39;100635.75;;;12.99;37.87
58757;BME280;44527;47.460;19.016;2024-03-17T13:48:41;100624.28;;;12.87;39.41
58757;BME280;44527;47.460;19.016;2024-03-17T13:51:43;100616.78;;;12.94;37.97
58757;BME280;44527;47.460;19.016;2024-03-17T13:54:44;100615.25;;;12.79;39.37
58757;BME280;44527;47.460;19.016;2024-03-17T13:57:50;100609.22;;;12.90;39.34
58757;BME280;44527;47.460;19.016;2024-03-17T14:00:58;100620.91;;;12.85;38.78
58757;BME280;44527;47.460;19.016;2024-03-17T14:04:00;100615.06;;;12.69;39.32
58757;BME280;44527;47.460;19.016;2024-03-17T14:07:01;100616.47;;;12.49;39.52
58757;BME280;44527;47.460;19.016;2024-03-17T14:10:03;100618.03;;;12.39;38.19
58757;BME280;44527;47.460;19.016;2024-03-17T14:13:05;100616.66;;;12.33;38.14
58757;BME280;44527;47.460;19.016;2024-03-17T14:16:06;100614.69;;;12.37;38.85
58757;BME280;44527;47.460;19.016;2024-03-17T14:19:08;100619.50;;;12.30;39.23
58757;BME280;44527;47.460;19.016;2024-03-17T14:22:09;100623.00;;;12.31;39.00
58757;BME280;44527;47.460;19.016;2024-03-17T14:25:17;100628.38;;;12.29;38.35
58757;BME280;44527;47.460;19.016;2024-03-17T14:28:20;100622.78;;;12.08;38.38
58757;BME280;44527;47.460;19.016;2024-03-17T14:31:23;100619.50;;;11.92;38.85
58757;BME280;44527;47.460;19.016;2024-03-17T14:34:24;100607.31;;;11.91;39.14
58757;BME280;44527;47.460;19.016;2024-03-17T14:37:28;100606.34;;;11.92;39.54
58757;BME280;44527;47.460;19.016;2024-03-17T14:40:30;100601.44;;;12.00;40.18
58757;BME280;44527;47.460;19.016;2024-03-17T14:43:31;100609.31;;;12.00;40.19
58757;BME280;44527;47.460;19.016;2024-03-17T14:46:33;100608.44;;;11.87;39.52
58757;BME280;44527;47.460;19.016;2024-03-17T14:49:34;100604.41;;;11.81;39.83
58757;BME280;44527;47.460;19.016;2024-03-17T14:52:36;100624.91;;;11.63;40.29
58757;BME280;44527;47.460;19.016;2024-03-17T14:55:37;100617.63;;;11.54;42.02
58757;BME280;44527;47.460;19.016;2024-03-17T14:58:39;100612.56;;;11.51;42.77
58757;BME280;44527;47.460;19.016;2024-03-17T15:01:41;100613.87;;;11.44;43.50
58757;BME280;44527;47.460;19.016;2024-03-17T15:04:42;100617.91;;;11.49;43.60
58757;BME280;44527;47.460;19.016;2024-03-17T15:07:44;100614.44;;;11.49;43.81
58757;BME280;44527;47.460;19.016;2024-03-17T15:10:46;100615.91;;;11.53;42.82
58757;BME280;44527;47.460;19.016;2024-03-17T15:13:47;100620.25;;;11.54;43.10
58757;BME280;44527;47.460;19.016;2024-03-17T15:16:50;100617.34;;;11.44;42.76
58757;BME280;44527;47.460;19.016;2024-03-17T15:19:51;100608.75;;;11.42;44.44
58757;BME280;44527;47.460;19.016;2024-03-17T15:22:53;100601.12;;;11.38;44.84
58757;BME280;44527;47.460;19.016;2024-03-17T15:25:59;100601.12;;;11.38;45.89
58757;BME280;44527;47.460;19.016;2024-03-17T15:29:00;100598.19;;;11.30;43.51
58757;BME280;44527;47.460;19.016;2024-03-17T15:32:04;100602.13;;;11.22;43.78
58757;BME280;44527;47.460;19.016;2024-03-17T15:35:06;100605.59;;;11.23;43.52
58757;BME280;44527;47.460;19.016;2024-03-17T15:38:08;100602.25;;;11.21;44.45
58757;BME280;44527;47.460;19.016;2024-03-17T15:41:10;100601.44;;;11.06;44.40
58757;BME280;44527;47.460;19.016;2024-03-17T15:44:12;100598.94;;;10.90;45.73
58757;BME280;44527;47.460;19.016;2024-03-17T15:47:14;100606.72;;;10.92;44.76
58757;BME280;44527;47.460;19.016;2024-03-17T15:50:15;100610.28;;;10.91;44.79